createdAt,value
2022-12-15T00:00:02.878Z,25.97
2022-12-15T00:02:50.484Z,25.47
2022-12-15T00:05:36.527Z,24.03
2022-12-15T00:08:28.202Z,25.53
2022-12-15T00:11:14.900Z,24.63
2022-12-15T00:14:00.615Z,25.00
2022-12-15T00:16:46.123Z,25.53
2022-12-15T00:19:31.374Z,24.67
2022-12-15T00:22:16.856Z,24.60
2022-12-15T00:25:03.900Z,24.17
2022-12-15T00:27:49.121Z,26.83
2022-12-15T00:30:35.136Z,24.80
2022-12-15T00:33:26.531Z,24.17
2022-12-15T00:36:12.281Z,23.77
2022-12-15T00:38:44.373Z,22.43
2022-12-15T00:41:15.363Z,24.43
2022-12-15T00:43:43.752Z,23.13
2022-12-15T00:46:29.600Z,24.23
2022-12-15T00:48:58.099Z,25.63
2022-12-15T00:51:43.871Z,24.07
2022-12-15T00:54:29.809Z,25.37
2022-12-15T00:57:16.752Z,24.27
2022-12-15T01:00:02.045Z,25.23
2022-12-15T01:02:47.686Z,22.93
2022-12-15T01:05:33.100Z,24.13
2022-12-15T01:08:19.308Z,22.33
2022-12-15T01:11:04.666Z,22.90
2022-12-15T01:13:51.619Z,23.13
2022-12-15T01:16:37.352Z,23.63
2022-12-15T01:19:23.012Z,21.67
2022-12-15T01:21:51.160Z,21.83
2022-12-15T01:24:19.334Z,21.33
2022-12-15T01:26:47.518Z,21.93
2022-12-15T01:29:17.331Z,22.73
2022-12-15T01:31:49.760Z,22.70
2022-12-15T01:34:20.206Z,21.47
2022-12-15T01:36:48.518Z,22.90
2022-12-15T01:39:16.961Z,22.97
2022-12-15T01:41:44.158Z,23.30
2022-12-15T01:44:23.891Z,23.50
2022-12-15T01:46:56.430Z,25.20
2022-12-15T01:49:28.560Z,29.23
2022-12-15T01:52:00.105Z,28.63
2022-12-15T01:54:32.059Z,26.83
2022-12-15T01:57:04.254Z,24.87
2022-12-15T01:59:37.149Z,24.03
2022-12-15T02:02:05.410Z,23.93
2022-12-15T02:04:34.928Z,24.07
2022-12-15T02:07:03.027Z,22.30
2022-12-15T02:09:32.019Z,24.57
2022-12-15T02:12:07.962Z,23.00
2022-12-15T02:14:54.960Z,22.20
2022-12-15T02:17:34.281Z,22.37
2022-12-15T02:20:34.847Z,23.47
2022-12-15T02:23:37.479Z,23.07
2022-12-15T02:26:33.872Z,21.90
2022-12-15T02:29:19.277Z,22.73
2022-12-15T02:31:54.058Z,22.57
2022-12-15T02:34:32.016Z,22.37
2022-12-15T02:37:07.355Z,21.03
2022-12-15T02:39:35.453Z,22.60
2022-12-15T02:42:03.757Z,21.33
2022-12-15T02:44:36.610Z,22.23
2022-12-15T02:47:22.158Z,21.20
2022-12-15T02:50:10.898Z,23.40
2022-12-15T02:52:50.010Z,21.50
2022-12-15T02:55:24.914Z,22.73
2022-12-15T02:58:00.707Z,21.10
2022-12-15T03:00:32.021Z,22.23
2022-12-15T03:03:02.050Z,20.53
2022-12-15T03:05:33.134Z,21.57
2022-12-15T03:08:01.410Z,20.50
2022-12-15T03:10:29.782Z,21.93
2022-12-15T03:12:58.993Z,20.10
2022-12-15T03:15:31.789Z,23.07
2022-12-15T03:18:05.036Z,20.33
2022-12-15T03:20:33.392Z,20.33
2022-12-15T03:23:01.977Z,20.80
2022-12-15T03:25:30.512Z,22.33
2022-12-15T03:27:58.654Z,21.43
2022-12-15T03:30:26.792Z,21.67
2022-12-15T03:32:55.011Z,22.07
2022-12-15T03:35:24.576Z,20.50
2022-12-15T03:37:52.859Z,22.43
2022-12-15T03:40:21.097Z,20.47
2022-12-15T03:42:49.390Z,21.40
2022-12-15T03:45:18.356Z,22.47
2022-12-15T03:47:47.128Z,21.87
2022-12-15T03:50:17.312Z,22.30
2022-12-15T03:52:47.174Z,21.57
2022-12-15T03:55:16.224Z,21.13
2022-12-15T03:57:44.374Z,21.27
2022-12-15T04:00:15.046Z,22.80
2022-12-15T04:02:43.451Z,21.40
2022-12-15T04:05:16.250Z,21.40
2022-12-15T04:07:44.379Z,21.53
2022-12-15T04:10:14.081Z,20.90
2022-12-15T04:12:42.518Z,19.53
2022-12-15T04:15:12.282Z,20.53
2022-12-15T04:17:40.649Z,20.13
2022-12-15T04:20:13.099Z,20.00
2022-12-15T04:22:43.794Z,21.20
2022-12-15T04:25:33.766Z,20.67
2022-12-15T04:28:19.719Z,19.87
2022-12-15T04:31:10.384Z,21.30
2022-12-15T04:33:58.276Z,20.03
2022-12-15T04:36:44.651Z,20.83
2022-12-15T04:39:30.398Z,21.70
2022-12-15T04:42:19.640Z,22.47
2022-12-15T04:45:06.503Z,20.73
2022-12-15T04:47:51.860Z,21.17
2022-12-15T04:50:37.766Z,23.43
2022-12-15T04:53:27.844Z,21.93
2022-12-15T04:56:18.499Z,21.60
2022-12-15T04:59:06.727Z,21.33
2022-12-15T05:01:53.127Z,24.23
2022-12-15T05:04:38.677Z,23.73
2022-12-15T05:07:24.571Z,23.07
2022-12-15T05:10:14.940Z,19.37
2022-12-15T05:13:01.251Z,22.13
2022-12-15T05:15:48.841Z,21.87
2022-12-15T05:18:34.821Z,19.97
2022-12-15T05:21:20.161Z,22.13
2022-12-15T05:24:05.593Z,21.80
2022-12-15T05:26:53.214Z,23.40
2022-12-15T05:29:39.289Z,23.60
2022-12-15T05:32:09.648Z,22.03
2022-12-15T05:34:38.726Z,22.57
2022-12-15T05:37:07.850Z,22.00
2022-12-15T05:39:36.881Z,22.50
2022-12-15T05:42:05.351Z,21.67
2022-12-15T05:44:33.536Z,22.53
2022-12-15T05:47:01.654Z,21.13
2022-12-15T05:49:31.084Z,20.70
2022-12-15T05:51:59.155Z,22.20
2022-12-15T05:54:27.236Z,21.60
2022-12-15T05:56:55.422Z,21.23
2022-12-15T05:59:23.590Z,20.13
2022-12-15T06:01:51.738Z,21.73
2022-12-15T06:04:20.067Z,20.70
2022-12-15T06:06:49.592Z,21.37
2022-12-15T06:09:17.647Z,28.13
2022-12-15T06:11:46.051Z,23.77
2022-12-15T06:14:14.252Z,22.33
2022-12-15T06:16:50.211Z,21.67
2022-12-15T06:19:19.692Z,23.20
2022-12-15T06:21:49.282Z,21.73
2022-12-15T06:24:17.891Z,21.17
2022-12-15T06:26:46.112Z,20.67
2022-12-15T06:29:18.515Z,21.47
2022-12-15T06:31:47.152Z,20.97
2022-12-15T06:34:20.428Z,21.73
2022-12-15T06:36:52.928Z,23.67
2022-12-15T06:39:21.692Z,22.37
2022-12-15T06:41:50.310Z,23.80
2022-12-15T06:44:18.424Z,19.57
2022-12-15T06:46:46.879Z,21.40
2022-12-15T06:49:15.662Z,22.07
2022-12-15T06:51:45.230Z,21.83
2022-12-15T06:54:14.805Z,21.17
2022-12-15T06:56:43.762Z,22.20
2022-12-15T06:59:12.849Z,22.23
2022-12-15T07:01:41.932Z,22.43
2022-12-15T07:04:11.598Z,20.27
2022-12-15T07:06:40.925Z,20.47
2022-12-15T07:09:13.237Z,21.70
2022-12-15T07:11:43.061Z,22.53
2022-12-15T07:14:11.731Z,23.03
2022-12-15T07:16:41.421Z,22.77
2022-12-15T07:19:12.996Z,23.10
2022-12-15T07:21:42.649Z,26.57
2022-12-15T07:24:12.519Z,23.53
2022-12-15T07:26:42.994Z,20.90
2022-12-15T07:29:12.089Z,23.93
2022-12-15T07:31:40.619Z,22.50
2022-12-15T07:34:08.998Z,20.13
2022-12-15T07:36:37.270Z,19.47
2022-12-15T07:39:06.214Z,21.67
2022-12-15T07:41:36.962Z,20.13
2022-12-15T07:44:06.648Z,21.47
2022-12-15T07:46:35.383Z,21.27
2022-12-15T07:49:03.660Z,21.50
2022-12-15T07:51:31.875Z,22.90
2022-12-15T07:54:00.306Z,20.80
2022-12-15T07:56:28.494Z,19.43
2022-12-15T07:58:56.666Z,19.70
2022-12-15T08:01:27.378Z,20.87
2022-12-15T08:03:55.649Z,18.77
2022-12-15T08:06:23.889Z,19.43
2022-12-15T08:08:52.276Z,19.33
2022-12-15T08:11:23.119Z,20.37
2022-12-15T08:14:15.034Z,19.70
2022-12-15T08:16:42.631Z,19.07
2022-12-15T08:19:13.355Z,18.90
2022-12-15T08:21:42.711Z,17.57
2022-12-15T08:24:11.638Z,17.90
2022-12-15T08:26:41.560Z,17.90
2022-12-15T08:32:03.273Z,17.87
2022-12-15T08:34:34.095Z,17.37
2022-12-15T08:37:02.579Z,16.63
2022-12-15T08:39:31.479Z,16.70
2022-12-15T08:41:59.773Z,16.53
2022-12-15T08:44:27.948Z,18.43
2022-12-15T08:46:56.279Z,15.83
2022-12-15T08:49:26.146Z,16.80
2022-12-15T08:51:54.321Z,17.73
2022-12-15T08:54:22.511Z,16.13
2022-12-15T08:56:51.000Z,16.93
2022-12-15T08:59:19.637Z,17.63
2022-12-15T09:01:48.425Z,17.10
2022-12-15T09:04:16.896Z,17.20
2022-12-15T09:06:50.911Z,14.67
2022-12-15T09:09:19.531Z,16.40
2022-12-15T09:11:47.961Z,16.37
2022-12-15T09:14:16.689Z,16.40
2022-12-15T09:16:45.242Z,17.47
2022-12-15T09:19:13.465Z,16.13
2022-12-15T09:21:44.967Z,17.03
2022-12-15T09:24:23.220Z,15.37
2022-12-15T09:26:54.624Z,16.07
2022-12-15T09:29:22.895Z,16.53
2022-12-15T09:31:51.250Z,16.00
2022-12-15T09:34:19.775Z,17.43
2022-12-15T09:36:48.038Z,17.20
2022-12-15T09:39:17.860Z,16.83
2022-12-15T09:41:53.810Z,18.60
2022-12-15T09:44:23.978Z,18.57
2022-12-15T09:47:05.862Z,16.83
2022-12-15T09:49:56.491Z,19.67
2022-12-15T09:52:29.233Z,19.37
2022-12-15T09:55:01.895Z,18.03
2022-12-15T09:57:38.696Z,19.10
2022-12-15T10:00:21.752Z,20.30
2022-12-15T10:03:25.593Z,19.73
2022-12-15T10:06:15.912Z,20.37
2022-12-15T10:08:50.720Z,18.87
2022-12-15T10:11:26.619Z,19.00
2022-12-15T10:14:02.499Z,21.67
2022-12-15T10:16:36.407Z,19.20
2022-12-15T10:19:13.686Z,20.03
2022-12-15T10:21:42.660Z,18.97
2022-12-15T10:24:37.490Z,19.43
2022-12-15T10:27:19.910Z,19.57
2022-12-15T10:30:01.665Z,18.57
2022-12-15T10:32:43.053Z,19.67
2022-12-15T10:35:17.277Z,19.40
2022-12-15T10:37:45.503Z,18.27
2022-12-15T10:40:18.917Z,19.37
2022-12-15T10:42:51.010Z,19.40
2022-12-15T10:45:35.690Z,18.90
2022-12-15T10:48:06.649Z,18.70
2022-12-15T10:50:35.674Z,19.67
2022-12-15T10:53:10.139Z,17.97
2022-12-15T10:55:40.324Z,17.63
2022-12-15T10:58:19.322Z,19.33
2022-12-15T11:00:50.838Z,18.20
2022-12-15T11:03:25.075Z,18.87
2022-12-15T11:05:54.501Z,20.40
2022-12-15T11:08:24.462Z,17.13
2022-12-15T11:11:12.444Z,18.70
2022-12-15T11:13:43.639Z,17.27
2022-12-15T11:16:16.564Z,17.93
2022-12-15T11:18:49.147Z,18.70
2022-12-15T11:21:23.422Z,18.50
2022-12-15T11:24:05.287Z,19.10
2022-12-15T11:26:45.142Z,18.30
2022-12-15T11:29:25.821Z,18.17
2022-12-15T11:31:55.378Z,18.87
2022-12-15T11:34:26.926Z,18.93
2022-12-15T11:37:21.391Z,18.83
2022-12-15T11:40:07.529Z,17.93
2022-12-15T11:42:48.933Z,18.83
2022-12-15T11:45:25.678Z,18.90
2022-12-15T11:48:01.929Z,18.13
2022-12-15T11:50:33.505Z,17.63
2022-12-15T11:53:18.699Z,18.40
2022-12-15T11:55:54.530Z,18.43
2022-12-15T11:58:55.085Z,17.30
2022-12-15T12:01:52.664Z,17.03
2022-12-15T12:04:28.170Z,18.83
2022-12-15T12:07:08.198Z,19.20
2022-12-15T12:09:38.457Z,18.30
2022-12-15T12:12:16.596Z,16.67
2022-12-15T12:14:54.560Z,16.17
2022-12-15T12:17:36.229Z,18.77
2022-12-15T12:20:15.226Z,17.17
2022-12-15T12:22:51.918Z,17.00
2022-12-15T12:25:23.313Z,17.77
2022-12-15T12:27:56.597Z,17.97
2022-12-15T12:30:28.129Z,19.27
2022-12-15T12:33:05.118Z,17.07
2022-12-15T12:35:39.950Z,19.10
2022-12-15T12:38:11.022Z,19.63
2022-12-15T12:40:56.599Z,18.50
2022-12-15T12:43:34.953Z,19.60
2022-12-15T12:46:10.249Z,18.60
2022-12-15T12:48:48.525Z,19.87
2022-12-15T12:51:28.456Z,18.37
2022-12-15T12:53:57.966Z,19.10
2022-12-15T12:56:36.966Z,18.40
2022-12-15T12:59:08.921Z,19.17
2022-12-15T13:01:39.002Z,17.70
2022-12-15T13:04:11.945Z,17.90
2022-12-15T13:07:01.136Z,19.67
2022-12-15T13:09:43.454Z,19.40
2022-12-15T13:12:53.708Z,18.50
2022-12-15T13:15:39.425Z,18.60
2022-12-15T13:18:13.693Z,18.13
2022-12-15T13:20:44.319Z,19.93
2022-12-15T13:23:37.489Z,19.03
2022-12-15T13:26:24.168Z,17.90
2022-12-15T13:28:53.373Z,19.03
2022-12-15T13:31:33.593Z,19.40
2022-12-15T13:34:27.560Z,19.23
2022-12-15T13:37:01.753Z,19.00
2022-12-15T13:39:58.716Z,18.83
2022-12-15T13:42:56.157Z,18.57
2022-12-15T13:45:36.000Z,19.40
2022-12-15T13:48:14.803Z,20.63
2022-12-15T13:50:51.388Z,17.53
2022-12-15T13:53:43.801Z,19.13
2022-12-15T13:56:37.300Z,18.53
2022-12-15T13:59:14.267Z,17.73
2022-12-15T14:01:51.342Z,19.73
2022-12-15T14:04:21.486Z,18.83
2022-12-15T14:06:51.874Z,19.10
2022-12-15T14:09:27.490Z,19.97
2022-12-15T14:11:56.155Z,19.83
2022-12-15T14:14:26.938Z,20.13
2022-12-15T14:17:01.840Z,19.50
2022-12-15T14:19:39.741Z,18.87
2022-12-15T14:22:27.498Z,20.10
2022-12-15T14:25:03.616Z,20.40
2022-12-15T14:27:34.071Z,20.50
2022-12-15T14:30:22.880Z,20.53
2022-12-15T14:32:55.019Z,20.10
2022-12-15T14:35:29.826Z,18.97
2022-12-15T14:38:01.839Z,19.77
2022-12-15T14:40:31.829Z,20.50
2022-12-15T14:43:00.390Z,21.20
2022-12-15T14:45:31.814Z,20.37
2022-12-15T14:48:39.428Z,20.93
2022-12-15T14:50:51.794Z,21.23
2022-12-15T14:53:22.692Z,20.70
2022-12-15T14:55:52.413Z,19.77
2022-12-15T14:58:31.242Z,20.20
2022-12-15T15:01:00.225Z,19.27
2022-12-15T15:03:37.412Z,21.10
2022-12-15T15:06:17.352Z,20.13
2022-12-15T15:08:49.190Z,20.53
2022-12-15T15:11:29.597Z,22.03
2022-12-15T15:14:01.886Z,20.10
2022-12-15T15:16:30.543Z,21.90
2022-12-15T15:19:02.567Z,20.63
2022-12-15T15:21:35.180Z,20.50
2022-12-15T15:24:05.749Z,25.37
2022-12-15T15:26:35.556Z,24.27
2022-12-15T15:29:04.055Z,28.27
2022-12-15T15:31:41.376Z,29.83
2022-12-15T15:34:11.610Z,28.10
2022-12-15T15:36:40.993Z,25.30
2022-12-15T15:39:15.544Z,26.90
2022-12-15T15:41:45.259Z,25.70
2022-12-15T15:44:15.717Z,25.90
2022-12-15T15:46:48.180Z,25.33
2022-12-15T15:49:20.739Z,24.60
2022-12-15T15:51:49.179Z,24.60
2022-12-15T15:54:21.965Z,23.60
2022-12-15T15:56:52.136Z,22.20
2022-12-15T15:59:22.604Z,21.63
2022-12-15T16:01:54.859Z,24.17
2022-12-15T16:04:23.568Z,25.23
2022-12-15T16:06:52.385Z,24.43
2022-12-15T16:09:21.116Z,23.17
2022-12-15T16:11:49.488Z,24.73
2022-12-15T16:14:19.558Z,25.37
2022-12-15T16:16:47.909Z,23.73
2022-12-15T16:19:16.141Z,24.33
2022-12-15T16:21:44.533Z,23.80
2022-12-15T16:24:17.188Z,24.80
2022-12-15T16:26:49.141Z,23.77
2022-12-15T16:29:21.128Z,24.50
2022-12-15T16:31:49.648Z,25.47
2022-12-15T16:34:19.400Z,23.43
2022-12-15T16:36:48.145Z,24.93
2022-12-15T16:39:26.444Z,24.70
2022-12-15T16:41:57.283Z,22.73
2022-12-15T16:44:29.634Z,24.17
2022-12-15T16:46:59.426Z,24.47
2022-12-15T16:49:33.916Z,24.10
2022-12-15T16:52:06.589Z,24.23
2022-12-15T16:54:34.846Z,23.03
2022-12-15T16:57:04.097Z,23.23
2022-12-15T16:59:35.265Z,22.13
2022-12-15T17:02:18.654Z,22.53
2022-12-15T17:04:47.366Z,24.67
2022-12-15T17:07:20.455Z,21.90
2022-12-15T17:09:50.394Z,21.37
2022-12-15T17:12:19.717Z,21.13
2022-12-15T17:14:49.642Z,21.73
2022-12-15T17:17:19.785Z,19.90
2022-12-15T17:22:38.266Z,22.60
2022-12-15T17:25:11.293Z,22.80
2022-12-15T17:27:40.187Z,21.43
2022-12-15T17:30:15.934Z,19.67
2022-12-15T17:32:44.819Z,21.87
2022-12-15T17:35:13.680Z,21.87
2022-12-15T17:37:43.376Z,20.93
2022-12-15T17:40:21.311Z,21.73
2022-12-15T17:42:51.974Z,20.63
2022-12-15T17:45:25.203Z,20.17
2022-12-15T17:47:54.437Z,20.03
2022-12-15T17:50:22.979Z,21.07
2022-12-15T17:52:51.728Z,20.87
2022-12-15T17:55:23.567Z,22.67
2022-12-15T17:57:53.734Z,22.10
2022-12-15T18:00:27.711Z,19.60
2022-12-15T18:02:57.687Z,22.47
2022-12-15T18:05:30.137Z,22.10
2022-12-15T18:08:01.957Z,21.93
2022-12-15T18:10:33.996Z,22.53
2022-12-15T18:13:03.794Z,21.07
2022-12-15T18:15:34.819Z,22.40
2022-12-15T18:18:03.895Z,21.70
2022-12-15T18:20:35.829Z,23.00
2022-12-15T18:23:04.334Z,20.87
2022-12-15T18:25:32.877Z,22.53
2022-12-15T18:28:02.121Z,21.50
2022-12-15T18:30:31.094Z,22.73
2022-12-15T18:33:01.039Z,21.50
2022-12-15T18:35:34.456Z,20.83
2022-12-15T18:38:02.594Z,21.87
2022-12-15T18:40:31.904Z,19.57
2022-12-15T18:43:00.493Z,21.20
2022-12-15T18:45:29.357Z,21.90
2022-12-15T18:47:58.254Z,22.83
2022-12-15T18:50:28.706Z,21.73
2022-12-15T18:53:00.881Z,24.60
2022-12-15T18:55:32.480Z,24.97
2022-12-15T18:58:01.906Z,25.67
2022-12-15T19:00:32.699Z,24.47
2022-12-15T19:03:02.324Z,24.13
2022-12-15T19:05:34.211Z,25.07
2022-12-15T19:08:10.257Z,26.03
2022-12-15T19:10:44.045Z,25.57
2022-12-15T19:13:15.533Z,25.20
2022-12-15T19:15:44.870Z,24.17
2022-12-15T19:18:33.734Z,25.70
2022-12-15T19:21:44.408Z,26.03
2022-12-15T19:24:15.057Z,25.80
2022-12-15T19:26:44.271Z,26.70
2022-12-15T19:29:23.980Z,27.13
2022-12-15T19:31:53.858Z,27.00
2022-12-15T19:34:23.532Z,26.60
2022-12-15T19:36:54.568Z,25.17
2022-12-15T19:39:26.145Z,27.73
2022-12-15T19:41:56.088Z,26.87
2022-12-15T19:44:26.452Z,25.07
2022-12-15T19:46:55.402Z,26.37
2022-12-15T19:49:24.654Z,27.40
2022-12-15T19:51:56.654Z,27.37
2022-12-15T19:54:26.494Z,27.17
2022-12-15T19:56:55.792Z,27.77
2022-12-15T19:59:29.265Z,26.80
2022-12-15T20:01:58.672Z,27.30
2022-12-15T20:04:28.215Z,25.10
2022-12-15T20:06:59.272Z,26.93
2022-12-15T20:09:28.785Z,26.47
2022-12-15T20:11:58.324Z,28.70
2022-12-15T20:14:28.231Z,26.73
2022-12-15T20:16:56.891Z,28.30
2022-12-15T20:19:26.301Z,28.93
2022-12-15T20:21:55.493Z,29.07
2022-12-15T20:24:28.931Z,28.07
2022-12-15T20:26:57.637Z,26.87
2022-12-15T20:29:28.858Z,27.30
2022-12-15T20:31:59.652Z,26.77
2022-12-15T20:34:33.890Z,28.27
2022-12-15T20:37:02.485Z,27.77
2022-12-15T20:39:33.411Z,27.03
2022-12-15T20:42:05.223Z,25.83
2022-12-15T20:44:34.309Z,26.33
2022-12-15T20:47:03.908Z,26.87
2022-12-15T20:49:32.729Z,25.83
2022-12-15T20:52:01.503Z,26.80
2022-12-15T20:54:31.765Z,26.70
2022-12-15T20:57:00.284Z,27.23
2022-12-15T20:59:28.821Z,27.27
2022-12-15T21:02:06.809Z,28.33
2022-12-15T21:04:36.612Z,26.20
2022-12-15T21:07:07.113Z,28.13
2022-12-15T21:09:37.426Z,27.93
2022-12-15T21:12:14.432Z,28.37
2022-12-15T21:14:42.823Z,26.27
2022-12-15T21:17:15.402Z,27.40
2022-12-15T21:19:44.301Z,27.73
2022-12-15T21:22:20.135Z,27.63
2022-12-15T21:24:52.482Z,26.33
2022-12-15T21:27:22.174Z,27.97
2022-12-15T21:29:52.579Z,28.00
2022-12-15T21:32:21.599Z,26.97
2022-12-15T21:34:51.783Z,28.50
2022-12-15T21:37:26.177Z,27.93
2022-12-15T21:39:56.253Z,27.90
2022-12-15T21:42:24.964Z,27.67
2022-12-15T21:44:53.263Z,28.10
2022-12-15T21:47:47.297Z,28.90
2022-12-15T21:50:14.824Z,29.60
2022-12-15T21:52:43.260Z,28.50
2022-12-15T21:55:18.170Z,29.43
2022-12-15T21:57:46.658Z,28.90
2022-12-15T22:00:17.544Z,28.07
2022-12-15T22:02:46.838Z,28.33
2022-12-15T22:05:18.516Z,28.50
2022-12-15T22:07:46.716Z,28.87
2022-12-15T22:10:16.579Z,29.77
2022-12-15T22:12:49.200Z,30.50
2022-12-15T22:15:19.924Z,29.07
2022-12-15T22:17:48.345Z,29.03
2022-12-15T22:20:18.616Z,30.67
2022-12-15T22:22:47.175Z,28.33
2022-12-15T22:25:22.190Z,31.20
2022-12-15T22:27:51.735Z,31.13
2022-12-15T22:30:21.893Z,30.37
2022-12-15T22:32:50.296Z,31.30
2022-12-15T22:35:20.764Z,31.10
2022-12-15T22:37:49.770Z,28.93
2022-12-15T22:40:19.455Z,29.93
2022-12-15T22:42:51.935Z,30.10
2022-12-15T22:45:24.093Z,30.90
2022-12-15T22:47:55.085Z,28.43
2022-12-15T22:50:25.061Z,29.87
2022-12-15T22:52:55.077Z,30.00
2022-12-15T22:55:25.629Z,31.07
2022-12-15T22:57:58.111Z,30.90
2022-12-15T23:00:26.322Z,30.83
2022-12-15T23:02:54.794Z,29.10
2022-12-15T23:05:23.286Z,29.77
2022-12-15T23:07:51.673Z,29.70
2022-12-15T23:10:38.647Z,30.30
2022-12-15T23:13:08.076Z,28.47
2022-12-15T23:15:54.748Z,30.80
2022-12-15T23:18:22.956Z,30.87
2022-12-15T23:20:51.726Z,29.97
2022-12-15T23:23:19.981Z,31.03
2022-12-15T23:25:48.173Z,30.07
2022-12-15T23:28:17.812Z,30.57
2022-12-15T23:30:49.952Z,31.97
2022-12-15T23:33:18.408Z,31.80
2022-12-15T23:35:46.941Z,31.80
2022-12-15T23:38:15.932Z,30.73
2022-12-15T23:40:52.557Z,30.67
2022-12-15T23:43:23.621Z,30.93
2022-12-15T23:45:58.344Z,31.73
2022-12-15T23:48:29.995Z,32.90
2022-12-15T23:51:04.772Z,33.27
2022-12-15T23:53:34.291Z,32.47
2022-12-15T23:56:11.472Z,33.13
2022-12-15T23:58:42.752Z,30.87
